Time;durP1;ratioP1;P1;durP2;ratioP2;P2;SDS_P1;SDS_P2;PMS_P1;PMS_P2;Temp;Humidity;BMP_temperature;BMP_pressure;BME280_temperature;BME280_humidity;BME280_pressure;Samples;Min_cycle;Max_cycle;Signal;HPM_P1;HPM_P2
2021/05/17 00:00:09;;;;;;;10.13;7.38;;;9.20;92.20;;;;;;5055654;28;20481;-35
2021/05/17 00:02:35;;;;;;;10.05;6.13;;;9.20;92.10;;;;;;5055459;28;20021;-35
2021/05/17 00:05:01;;;;;;;10.57;7.40;;;9.30;92.00;;;;;;5055022;28;20392;-35
2021/05/17 00:07:27;;;;;;;11.38;7.97;;;9.30;91.90;;;;;;5054902;28;20028;-35
2021/05/17 00:09:53;;;;;;;10.63;7.10;;;9.30;92.00;;;;;;5054166;28;20031;-35
2021/05/17 00:12:19;;;;;;;11.48;6.95;;;9.30;91.90;;;;;;5053703;28;20477;-35
2021/05/17 00:14:45;;;;;;;15.50;8.43;;;9.40;91.80;;;;;;5055095;28;20178;-35
2021/05/17 00:17:11;;;;;;;10.52;7.05;;;9.40;91.70;;;;;;5056069;28;20070;-35
2021/05/17 00:19:37;;;;;;;10.30;6.88;;;9.30;91.90;;;;;;5055715;28;20029;-35
2021/05/17 00:22:03;;;;;;;14.60;6.97;;;9.40;91.80;;;;;;5054706;28;20465;-34
2021/05/17 00:24:31;;;;;;;10.23;7.03;;;9.40;91.50;;;;;;5053133;28;20366;-35
2021/05/17 00:26:57;;;;;;;9.65;6.78;;;9.60;90.90;;;;;;5053423;28;20436;-35
2021/05/17 00:29:23;;;;;;;7.80;6.50;;;9.60;90.60;;;;;;5054427;28;20028;-35
2021/05/17 00:31:48;;;;;;;12.73;8.27;;;9.70;90.50;;;;;;5054903;28;20029;-35
2021/05/17 00:34:14;;;;;;;10.30;6.20;;;9.80;90.20;;;;;;5054379;28;20530;-36
2021/05/17 00:36:40;;;;;;;10.40;6.30;;;9.80;90.40;;;;;;5054293;28;20029;-36
2021/05/17 00:39:11;;;;;;;11.27;7.25;;;9.70;90.50;;;;;;5054774;28;20539;-36
2021/05/17 00:41:37;;;;;;;;;;;9.70;91.00;;;;;;5054681;28;20115;-36
2021/05/17 00:44:04;;;;;;;9.25;5.95;;;9.80;90.40;;;;;;5054316;28;19905;-36
2021/05/17 00:46:31;;;;;;;8.65;6.47;;;9.80;90.20;;;;;;5054157;28;20056;-36
2021/05/17 00:48:57;;;;;;;11.18;7.60;;;9.80;89.80;;;;;;5054178;28;20025;-35
2021/05/17 00:51:23;;;;;;;10.98;7.22;;;9.80;90.60;;;;;;5052545;28;20045;-35
2021/05/17 00:53:49;;;;;;;9.15;6.43;;;9.90;90.00;;;;;;5054107;28;20473;-35
2021/05/17 00:56:15;;;;;;;8.32;6.45;;;9.80;89.90;;;;;;5054170;28;20031;-35
2021/05/17 00:58:41;;;;;;;8.32;6.22;;;9.80;90.00;;;;;;5054059;28;20028;-35
2021/05/17 01:01:07;;;;;;;8.95;6.45;;;9.90;89.50;;;;;;5053851;28;20028;-35
2021/05/17 01:03:34;;;;;;;9.80;6.47;;;9.90;90.10;;;;;;5053938;28;20053;-35
2021/05/17 01:06:00;;;;;;;8.90;6.65;;;10.00;89.50;;;;;;5053519;28;20477;-35
2021/05/17 01:08:34;;;;;;;10.77;6.70;;;10.00;89.30;;;;;;5053136;28;20035;-35
2021/05/17 01:11:04;;;;;;;12.35;7.18;;;9.90;89.30;;;;;;5054112;28;20384;-35
2021/05/17 01:13:31;;;;;;;13.37;8.23;;;10.00;89.20;;;;;;5053922;28;20036;-35
2021/05/17 01:15:59;;;;;;;13.80;6.63;;;9.90;89.30;;;;;;5053958;28;20275;-36
2021/05/17 01:18:26;;;;;;;8.75;6.28;;;10.00;89.60;;;;;;5053503;28;20071;-35
2021/05/17 01:20:54;;;;;;;11.43;7.07;;;9.80;89.60;;;;;;5053511;28;20025;-36
2021/05/17 01:25:50;;;;;;;6.78;5.13;;;9.80;90.50;;;;;;5053396;28;20126;-35
2021/05/17 01:28:22;;;;;;;10.85;6.30;;;9.80;90.80;;;;;;5053475;28;20072;-35
2021/05/17 01:30:52;;;;;;;8.70;5.90;;;9.80;91.20;;;;;;5054398;28;20424;-36
2021/05/17 01:33:18;;;;;;;8.45;5.25;;;9.80;91.20;;;;;;5053898;28;20017;-34
2021/05/17 01:35:49;;;;;;;7.95;5.55;;;9.80;90.90;;;;;;5053659;28;20032;-34
2021/05/17 01:38:18;;;;;;;7.80;4.57;;;10.00;91.00;;;;;;5054553;28;20104;-34
2021/05/17 01:40:46;;;;;;;10.85;5.05;;;10.00;90.00;;;;;;5053404;28;20029;-34
2021/05/17 01:43:13;;;;;;;9.23;6.22;;;10.10;89.60;;;;;;5052021;28;20082;-34
2021/05/17 01:45:40;;;;;;;8.68;5.43;;;10.20;90.10;;;;;;5053273;28;20104;-34
2021/05/17 01:48:07;;;;;;;8.45;4.68;;;10.20;89.00;;;;;;5053265;28;20100;-35
2021/05/17 01:50:33;;;;;;;12.15;5.95;;;10.20;89.40;;;;;;5053101;28;20127;-35
2021/05/17 01:52:59;;;;;;;7.78;5.03;;;10.30;88.70;;;;;;5053229;28;20057;-35
2021/05/17 01:55:26;;;;;;;8.77;5.13;;;10.20;89.10;;;;;;5053392;28;20487;-35
2021/05/17 01:58:07;;;;;;;8.77;5.13;;;10.20;89.80;;;;;;5053575;28;20021;-37
2021/05/17 02:00:33;;;;;;;10.68;5.20;;;10.30;89.20;;;;;;5053215;28;20028;-36
2021/05/17 02:02:59;;;;;;;7.95;4.97;;;10.30;89.20;;;;;;5053429;28;20025;-35
2021/05/17 02:05:26;;;;;;;8.05;5.32;;;10.20;89.50;;;;;;5053431;28;20112;-36
2021/05/17 02:07:53;;;;;;;11.15;6.20;;;10.30;89.70;;;;;;5053373;28;20061;-35
2021/05/17 02:10:20;;;;;;;7.38;4.78;;;10.30;89.50;;;;;;5053080;28;20025;-35
2021/05/17 02:12:48;;;;;;;10.15;4.95;;;10.20;90.30;;;;;;5053216;28;20079;-34
2021/05/17 02:15:18;;;;;;;9.27;4.50;;;10.10;90.50;;;;;;5053282;28;20388;-35
2021/05/17 02:17:45;;;;;;;8.40;4.67;;;10.20;90.60;;;;;;5053704;28;20025;-35
2021/05/17 02:20:17;;;;;;;10.02;4.60;;;10.30;91.00;;;;;;5057321;28;20270;-35
2021/05/17 02:22:46;;;;;;;8.10;5.05;;;10.30;90.10;;;;;;5057402;28;20026;-35
2021/05/17 02:25:12;;;;;;;17.02;5.32;;;10.30;90.40;;;;;;5057182;28;20035;-34
2021/05/17 02:27:44;;;;;;;10.23;4.85;;;10.20;90.80;;;;;;5057004;28;20485;-35
2021/05/17 02:30:12;;;;;;;8.02;5.07;;;10.30;90.10;;;;;;5057444;28;20086;-34
2021/05/17 02:32:38;;;;;;;11.23;4.75;;;10.10;91.00;;;;;;5057088;28;20550;-35
2021/05/17 02:35:06;;;;;;;6.97;4.57;;;10.20;91.00;;;;;;5055454;28;20392;-36
2021/05/17 02:37:33;;;;;;;8.88;4.40;;;10.30;90.30;;;;;;5055751;28;20036;-35
2021/05/17 02:40:00;;;;;;;9.50;4.95;;;10.30;90.70;;;;;;5057008;28;20103;-35
2021/05/17 02:42:28;;;;;;;7.72;4.70;;;10.30;90.40;;;;;;5056864;28;20538;-35
2021/05/17 02:44:57;;;;;;;6.72;4.45;;;10.30;90.60;;;;;;5056791;28;20432;-34
2021/05/17 02:47:24;;;;;;;5.95;3.83;;;10.20;91.20;;;;;;5056448;28;20031;-36
2021/05/17 02:49:51;;;;;;;7.32;5.32;;;10.30;90.80;;;;;;5056785;28;20032;-34
2021/05/17 02:52:17;;;;;;;7.57;4.32;;;10.30;90.60;;;;;;5056231;28;20045;-35
2021/05/17 02:54:57;;;;;;;9.50;5.20;;;10.40;90.60;;;;;;5056494;28;20032;-35
2021/05/17 02:57:37;;;;;;;7.45;5.80;;;10.30;90.40;;;;;;5055554;28;20374;-35
2021/05/17 03:00:08;;;;;;;;;;;10.20;91.40;;;;;;5056871;28;20021;-35
2021/05/17 03:02:54;;;;;;;5.32;4.32;;;10.10;91.60;;;;;;5056645;28;19970;-35
2021/05/17 03:05:20;;;;;;;6.97;4.88;;;10.00;92.00;;;;;;5056237;28;20035;-35
2021/05/17 03:08:00;;;;;;;8.77;4.40;;;9.90;92.40;;;;;;5056097;28;20046;-35
2021/05/17 03:10:28;;;;;;;6.47;4.50;;;9.80;92.50;;;;;;5056345;28;20021;-35
2021/05/17 03:12:56;;;;;;;8.20;4.03;;;9.80;92.70;;;;;;5055933;28;20064;-35
2021/05/17 03:15:25;;;;;;;8.55;4.75;;;9.90;92.80;;;;;;5055920;28;20116;-35
2021/05/17 03:17:56;;;;;;;6.82;4.55;;;9.80;92.70;;;;;;5056639;28;20017;-35
2021/05/17 03:20:23;;;;;;;6.43;4.75;;;10.00;92.40;;;;;;5056106;28;20021;-35
2021/05/17 03:22:50;;;;;;;9.55;4.97;;;10.10;92.40;;;;;;5056264;28;20020;-35
2021/05/17 03:25:22;;;;;;;7.47;4.78;;;10.10;91.70;;;;;;5056413;28;20112;-35
2021/05/17 03:27:48;;;;;;;6.50;4.32;;;10.10;91.80;;;;;;5056514;28;20362;-34
2021/05/17 03:30:14;;;;;;;9.32;4.78;;;10.10;91.90;;;;;;5053800;28;20093;-34
2021/05/17 03:32:40;;;;;;;8.75;4.25;;;10.10;91.40;;;;;;5055420;28;20025;-35
2021/05/17 03:35:05;;;;;;;6.18;3.53;;;10.10;91.50;;;;;;5055795;28;20025;-35
2021/05/17 03:37:31;;;;;;;7.55;3.78;;;10.20;91.10;;;;;;5055597;28;20029;-35
2021/05/17 03:39:57;;;;;;;5.47;3.88;;;10.10;91.10;;;;;;5055539;28;20029;-34
2021/05/17 03:42:23;;;;;;;6.15;3.25;;;10.20;91.40;;;;;;5055717;28;20072;-35
2021/05/17 03:44:48;;;;;;;5.90;3.85;;;10.20;91.10;;;;;;5055754;28;20025;-35
2021/05/17 03:47:14;;;;;;;4.47;2.95;;;10.20;91.40;;;;;;5055704;28;20032;-35
2021/05/17 03:49:40;;;;;;;6.70;3.72;;;10.30;90.60;;;;;;5055895;28;20369;-35
2021/05/17 03:52:06;;;;;;;5.65;3.60;;;10.20;90.60;;;;;;5055216;28;20548;-35
2021/05/17 03:54:31;;;;;;;7.95;3.55;;;10.30;91.00;;;;;;5054216;28;20025;-35
2021/05/17 03:56:58;;;;;;;6.53;3.05;;;10.20;90.80;;;;;;5055445;28;20051;-35
2021/05/17 03:59:24;;;;;;;4.50;3.00;;;10.20;91.00;;;;;;5055331;28;20066;-35
2021/05/17 04:01:50;;;;;;;3.65;3.15;;;10.10;91.10;;;;;;5055788;28;20050;-35
2021/05/17 04:04:19;;;;;;;6.78;3.47;;;10.20;91.10;;;;;;5054178;28;20486;-35
2021/05/17 04:06:53;;;;;;;5.05;3.03;;;10.10;91.60;;;;;;5056327;28;20028;-35
2021/05/17 04:14:48;;;;;;;6.85;3.17;;;10.40;90.10;;;;;;5054924;28;20032;-34
2021/05/17 04:17:14;;;;;;;5.88;3.20;;;10.40;90.50;;;;;;5055014;28;20021;-35
2021/05/17 04:19:40;;;;;;;7.93;3.05;;;10.50;90.10;;;;;;5053845;28;20055;-35
2021/05/17 04:22:06;;;;;;;6.25;2.53;;;10.50;90.20;;;;;;5055937;28;20354;-35
2021/05/17 04:24:31;;;;;;;3.55;2.58;;;10.40;90.40;;;;;;5055057;28;20159;-35
2021/05/17 04:26:57;;;;;;;4.90;2.38;;;10.40;90.40;;;;;;5054827;28;20021;-35
2021/05/17 04:29:23;;;;;;;4.88;3.08;;;10.50;90.20;;;;;;5054714;28;20033;-35
2021/05/17 04:31:48;;;;;;;7.10;2.70;;;10.50;89.80;;;;;;5054669;28;20558;-35
2021/05/17 04:34:14;;;;;;;4.53;2.80;;;10.60;89.80;;;;;;5054823;28;20107;-35
2021/05/17 04:36:40;;;;;;;4.45;2.17;;;10.60;90.10;;;;;;5054522;28;20025;-35
2021/05/17 04:39:05;;;;;;;4.10;2.55;;;10.60;89.70;;;;;;5054524;28;20017;-35
2021/05/17 04:41:31;;;;;;;10.07;2.33;;;10.70;90.50;;;;;;5053436;28;20377;-36
2021/05/17 04:43:57;;;;;;;4.13;1.95;;;10.80;90.00;;;;;;5054689;28;20021;-36
2021/05/17 04:46:23;;;;;;;4.95;2.35;;;10.60;90.60;;;;;;5052973;28;20033;-35
2021/05/17 04:48:49;;;;;;;6.88;2.28;;;10.60;90.10;;;;;;5052832;28;20025;-35
2021/05/17 04:51:24;;;;;;;4.80;2.15;;;10.80;89.40;;;;;;5054188;28;20546;-35
2021/05/17 04:53:51;;;;;;;4.38;2.42;;;10.80;89.60;;;;;;5054557;28;20021;-35
2021/05/17 04:56:17;;;;;;;4.35;2.45;;;10.80;88.90;;;;;;5054164;28;20029;-35
2021/05/17 04:58:43;;;;;;;6.88;2.88;;;10.80;89.30;;;;;;5054121;28;20021;-35
2021/05/17 05:01:09;;;;;;;3.17;2.00;;;10.80;89.80;;;;;;5053812;28;20487;-35
2021/05/17 05:03:34;;;;;;;2.15;1.85;;;10.90;89.10;;;;;;5053791;28;20052;-35
2021/05/17 05:06:00;;;;;;;5.43;2.03;;;10.80;90.00;;;;;;5053935;28;20025;-35
2021/05/17 05:08:27;;;;;;;6.53;3.75;;;10.70;90.00;;;;;;5053760;28;20119;-35
2021/05/17 05:10:53;;;;;;;6.80;2.88;;;10.60;90.50;;;;;;5054096;28;20037;-35
2021/05/17 05:13:18;;;;;;;4.70;2.60;;;10.60;90.50;;;;;;5053684;28;20032;-35
2021/05/17 05:15:44;;;;;;;4.30;2.50;;;10.80;90.20;;;;;;5053864;28;20023;-35
2021/05/17 05:18:10;;;;;;;4.45;2.80;;;10.80;89.60;;;;;;5053904;28;20195;-35
2021/05/17 05:20:36;;;;;;;4.55;2.92;;;10.80;89.60;;;;;;5053360;28;20025;-35
2021/05/17 05:23:03;;;;;;;5.43;2.17;;;10.80;89.80;;;;;;5053763;28;20025;-35
2021/05/17 05:28:16;;;;;;;3.40;2.30;;;11.10;89.10;;;;;;5053668;28;20048;-37
2021/05/17 05:30:55;;;;;;;4.75;2.28;;;11.20;88.20;;;;;;5053596;28;20029;-35
2021/05/17 05:33:21;;;;;;;3.05;2.58;;;11.10;88.70;;;;;;5053717;28;20052;-35
2021/05/17 05:35:47;;;;;;;4.25;2.42;;;11.30;88.60;;;;;;5053631;28;20083;-37
2021/05/17 05:38:13;;;;;;;5.20;2.65;;;11.10;88.90;;;;;;5053641;28;20473;-34
2021/05/17 05:40:40;;;;;;;4.55;2.60;;;11.40;88.30;;;;;;5052977;28;20037;-35
2021/05/17 05:43:05;;;;;;;5.88;4.25;;;11.50;87.80;;;;;;5053180;28;20048;-35
2021/05/17 05:45:41;;;;;;;4.65;2.20;;;11.30;88.00;;;;;;5053679;28;20025;-35
2021/05/17 05:48:07;;;;;;;10.52;4.68;;;11.30;89.30;;;;;;5053407;28;20025;-35
2021/05/17 05:50:33;;;;;;;7.00;2.58;;;11.30;88.70;;;;;;5052923;28;20512;-35
2021/05/17 05:52:58;;;;;;;4.28;2.35;;;11.40;88.00;;;;;;5052730;28;20025;-35
2021/05/17 05:55:24;;;;;;;4.90;2.28;;;11.40;88.20;;;;;;5052765;28;20029;-35
2021/05/17 05:57:50;;;;;;;4.20;2.35;;;11.30;88.60;;;;;;5052736;28;20103;-36
2021/05/17 06:00:17;;;;;;;2.65;2.05;;;11.20;89.50;;;;;;5052867;28;20099;-34
2021/05/17 06:02:44;;;;;;;8.25;2.40;;;11.10;89.20;;;;;;5053451;28;20021;-34
2021/05/17 06:05:10;;;;;;;10.23;2.58;;;11.40;88.50;;;;;;5051425;28;20025;-36
2021/05/17 06:07:36;;;;;;;3.58;2.25;;;11.50;88.30;;;;;;5053004;28;20385;-36
2021/05/17 06:10:03;;;;;;;5.63;2.95;;;11.50;88.10;;;;;;5052806;28;20021;-34
2021/05/17 06:12:29;;;;;;;6.97;2.42;;;11.60;87.50;;;;;;5053100;28;20025;-35
2021/05/17 06:15:01;;;;;;;5.45;2.40;;;11.80;87.10;;;;;;5053974;28;20096;-35
2021/05/17 06:17:27;;;;;;;4.22;2.22;;;11.70;87.10;;;;;;5052910;28;20087;-35
2021/05/17 06:19:53;;;;;;;7.68;2.75;;;11.50;88.40;;;;;;5052721;28;20389;-35
2021/05/17 06:22:21;;;;;;;5.22;2.60;;;11.50;89.40;;;;;;5052602;28;20021;-34
2021/05/17 06:24:47;;;;;;;12.60;2.47;;;11.40;88.50;;;;;;5052895;28;20388;-35
2021/05/17 06:27:13;;;;;;;7.32;2.60;;;11.50;88.20;;;;;;5052857;28;20048;-36
2021/05/17 06:29:39;;;;;;;8.85;2.83;;;11.70;88.30;;;;;;5052518;28;20072;-35
2021/05/17 06:32:07;;;;;;;7.35;2.47;;;11.60;88.50;;;;;;5052554;28;20052;-35
2021/05/17 06:34:40;;;;;;;4.72;2.58;;;11.40;88.50;;;;;;5052587;28;20025;-36
2021/05/17 06:37:07;;;;;;;5.28;2.70;;;11.50;88.50;;;;;;5052709;28;20055;-35
2021/05/17 06:39:33;;;;;;;3.80;2.03;;;11.60;88.80;;;;;;5053055;28;20529;-36
2021/05/17 06:41:59;;;;;;;8.27;2.20;;;11.50;87.70;;;;;;5051442;28;20451;-35
2021/05/17 06:44:25;;;;;;;6.72;2.42;;;11.70;88.00;;;;;;5052766;28;20029;-35
2021/05/17 06:46:51;;;;;;;5.40;2.20;;;11.60;87.10;;;;;;5052127;28;20029;-35
2021/05/17 06:49:17;;;;;;;3.47;2.30;;;11.40;88.30;;;;;;5052251;28;20388;-35
2021/05/17 06:51:43;;;;;;;4.65;3.50;;;11.40;88.60;;;;;;5051901;28;20049;-35
2021/05/17 06:54:10;;;;;;;6.72;2.30;;;11.50;88.20;;;;;;5052348;28;20021;-34
2021/05/17 06:59:17;;;;;;;4.75;1.80;;;11.80;88.30;;;;;;5052696;28;20049;-35
2021/05/17 07:01:43;;;;;;;4.68;2.60;;;12.00;87.00;;;;;;5052055;28;20075;-36
2021/05/17 07:04:15;;;;;;;3.53;2.85;;;12.10;86.10;;;;;;5052012;28;20047;-36
2021/05/17 07:06:45;;;;;;;4.63;2.10;;;12.10;86.00;;;;;;5038513;28;20017;-35
2021/05/17 07:12:09;;;;;;;5.53;2.28;;;12.30;86.00;;;;;;5055678;28;20499;-36
2021/05/17 07:14:35;;;;;;;8.35;2.38;;;12.70;84.40;;;;;;5055680;28;20024;-37
2021/05/17 07:17:01;;;;;;;6.07;2.55;;;12.60;84.20;;;;;;5056077;28;20082;-36
2021/05/17 07:19:26;;;;;;;8.32;2.42;;;12.40;84.70;;;;;;5056159;28;20021;-37
2021/05/17 07:24:37;;;;;;;4.22;1.98;;;12.80;83.30;;;;;;5055400;28;20082;-36
2021/05/17 07:27:03;;;;;;;4.15;1.98;;;12.80;83.10;;;;;;5055328;28;20029;-36
2021/05/17 07:29:32;;;;;;;6.60;2.20;;;12.80;83.10;;;;;;5054152;28;20090;-35
2021/05/17 07:31:59;;;;;;;8.48;2.25;;;13.10;80.60;;;;;;5055475;28;20025;-34
2021/05/17 07:34:25;;;;;;;9.50;2.60;;;13.00;82.50;;;;;;5055414;28;20472;-35
2021/05/17 07:36:50;;;;;;;5.75;2.75;;;12.90;82.60;;;;;;5055243;28;20021;-34
2021/05/17 07:39:16;;;;;;;5.10;1.73;;;13.10;82.40;;;;;;5055317;28;20025;-35
2021/05/17 07:41:45;;;;;;;3.85;2.47;;;13.30;80.40;;;;;;5054992;28;20021;-36
2021/05/17 07:44:11;;;;;;;5.30;1.63;;;12.90;80.90;;;;;;5054981;28;20120;-36
2021/05/17 07:46:37;;;;;;;4.15;1.52;;;13.40;77.50;;;;;;5055242;28;20513;-36
2021/05/17 07:49:09;;;;;;;6.45;1.70;;;12.90;80.20;;;;;;5053956;28;20108;-37
2021/05/17 07:51:36;;;;;;;2.53;1.80;;;13.30;80.60;;;;;;5053604;28;20438;-40
2021/05/17 07:54:03;;;;;;;1.73;1.17;;;13.40;79.00;;;;;;5055073;28;20025;-35
2021/05/17 07:56:29;;;;;;;6.78;3.40;;;13.10;78.00;;;;;;5055328;28;20029;-35
2021/05/17 07:58:55;;;;;;;7.30;2.55;;;13.00;80.70;;;;;;5054835;28;20431;-35
2021/05/17 08:01:21;;;;;;;6.53;0.85;;;13.20;79.70;;;;;;5055098;28;20048;-35
2021/05/17 08:03:46;;;;;;;5.65;2.40;;;13.00;79.70;;;;;;5055350;28;20365;-35
2021/05/17 08:06:12;;;;;;;1.85;1.35;;;13.00;80.20;;;;;;5053604;28;20025;-35
2021/05/17 08:08:38;;;;;;;5.13;1.83;;;13.30;78.30;;;;;;5053208;28;20033;-35
2021/05/17 08:11:04;;;;;;;4.72;2.10;;;13.00;78.40;;;;;;5053118;28;20033;-35
2021/05/17 08:13:30;;;;;;;4.55;1.85;;;13.20;79.20;;;;;;5054606;28;20100;-35
2021/05/17 08:15:56;;;;;;;2.67;1.58;;;13.20;78.80;;;;;;5054572;28;20028;-36
2021/05/17 08:18:22;;;;;;;5.88;1.58;;;13.50;77.40;;;;;;5054202;28;20040;-36
2021/05/17 08:20:48;;;;;;;4.97;1.45;;;13.20;78.60;;;;;;5054817;28;20025;-36
2021/05/17 08:23:16;;;;;;;6.85;2.05;;;13.20;79.90;;;;;;5054253;28;20025;-35
2021/05/17 08:25:43;;;;;;;5.53;1.60;;;13.50;77.80;;;;;;5054412;28;20035;-36
2021/05/17 08:28:09;;;;;;;3.22;1.48;;;13.90;76.20;;;;;;5054419;28;20035;-36
2021/05/17 08:30:41;;;;;;;4.78;1.70;;;13.40;77.10;;;;;;5052316;28;20116;-35
2021/05/17 08:33:08;;;;;;;9.82;5.38;;;13.60;77.90;;;;;;5053956;28;20159;-36
2021/05/17 08:35:34;;;;;;;8.32;2.47;;;13.40;78.00;;;;;;5054598;28;20037;-37
2021/05/17 08:38:00;;;;;;;4.50;2.33;;;13.60;77.50;;;;;;5054381;28;20087;-35
2021/05/17 08:40:26;;;;;;;6.60;1.90;;;13.70;75.60;;;;;;5054773;28;20032;-35
2021/05/17 08:42:54;;;;;;;5.90;1.65;;;14.10;74.20;;;;;;5053966;28;20075;-36
2021/05/17 08:45:20;;;;;;;5.75;0.98;;;13.90;74.40;;;;;;5053850;28;20056;-36
2021/05/17 08:47:46;;;;;;;2.85;1.20;;;14.10;73.60;;;;;;5053673;28;20473;-36
2021/05/17 08:50:12;;;;;;;3.60;1.35;;;14.50;74.60;;;;;;5053229;28;20143;-36
2021/05/17 08:52:39;;;;;;;4.70;1.65;;;14.50;73.00;;;;;;5053475;28;20028;-36
2021/05/17 08:55:07;;;;;;;3.42;1.50;;;15.30;68.80;;;;;;5053884;28;20025;-36
2021/05/17 08:57:33;;;;;;;6.25;1.33;;;15.30;67.90;;;;;;5053559;28;20055;-36
2021/05/17 08:59:58;;;;;;;3.10;1.15;;;15.30;68.10;;;;;;5054036;28;20048;-43
2021/05/17 09:02:29;;;;;;;4.65;1.90;;;15.80;66.90;;;;;;5053659;28;20036;-37
2021/05/17 09:05:08;;;;;;;6.00;1.20;;;15.90;65.20;;;;;;5053911;28;20025;-36
2021/05/17 09:07:39;;;;;;;2.50;1.25;;;16.60;62.20;;;;;;5053323;28;20032;-36
2021/05/17 09:10:20;;;;;;;4.93;1.20;;;16.20;63.10;;;;;;5053758;28;20489;-36
2021/05/17 09:12:59;;;;;;;2.97;1.30;;;15.30;64.20;;;;;;5053770;28;20059;-36
2021/05/17 09:15:34;;;;;;;3.78;1.00;;;15.50;65.10;;;;;;5053446;28;20025;-35
2021/05/17 09:18:27;;;;;;;4.38;1.20;;;15.60;64.30;;;;;;5053357;28;20021;-36
2021/05/17 09:20:59;;;;;;;3.85;1.25;;;15.30;67.10;;;;;;5052604;28;20055;-35
2021/05/17 09:23:30;;;;;;;7.45;1.13;;;14.70;68.30;;;;;;5053470;28;20056;-35
2021/05/17 09:26:14;;;;;;;2.40;0.88;;;14.80;67.80;;;;;;5052723;28;20040;-35
2021/05/17 09:28:46;;;;;;;2.28;0.80;;;14.60;66.90;;;;;;5052739;28;20409;-35
2021/05/17 09:31:13;;;;;;;1.38;1.00;;;14.80;67.10;;;;;;5053116;28;20045;-35
2021/05/17 09:33:38;;;;;;;6.03;1.08;;;14.80;66.20;;;;;;5053008;28;20017;-36
2021/05/17 09:36:07;;;;;;;3.42;0.93;;;14.40;67.80;;;;;;5052867;28;20028;-35
2021/05/17 09:38:33;;;;;;;3.65;1.02;;;14.10;70.40;;;;;;5052982;28;20029;-35
2021/05/17 09:41:04;;;;;;;4.75;1.67;;;14.00;71.90;;;;;;5053591;28;20025;-35
2021/05/17 09:43:30;;;;;;;3.08;0.88;;;13.30;74.70;;;;;;5052982;28;20017;-35
2021/05/17 09:45:56;;;;;;;2.97;1.17;;;12.80;78.20;;;;;;5053299;28;20122;-35
2021/05/17 09:48:29;;;;;;;8.27;1.80;;;12.50;81.30;;;;;;5052719;28;20055;-36
2021/05/17 09:51:08;;;;;;;4.38;1.30;;;12.10;83.50;;;;;;5052800;28;20049;-36
2021/05/17 09:53:39;;;;;;;6.00;1.70;;;12.20;84.40;;;;;;5052782;28;20072;-36
2021/05/17 09:56:18;;;;;;;4.45;1.13;;;12.20;84.60;;;;;;5053154;28;20388;-40
2021/05/17 09:58:51;;;;;;;4.50;0.95;;;12.30;84.70;;;;;;5052652;28;20021;-36
2021/05/17 10:01:30;;;;;;;2.75;1.33;;;12.30;82.80;;;;;;5052650;28;20385;-36
2021/05/17 10:04:05;;;;;;;6.57;2.20;;;12.50;82.80;;;;;;5052697;28;20013;-36
2021/05/17 10:06:31;;;;;;;3.67;1.58;;;13.50;80.60;;;;;;5051479;28;20431;-41
2021/05/17 10:08:57;;;;;;;5.57;2.08;;;13.60;78.20;;;;;;5052565;28;20025;-35
2021/05/17 10:11:25;;;;;;;5.78;1.10;;;13.80;78.80;;;;;;5052660;28;20025;-35
2021/05/17 10:13:52;;;;;;;1.88;1.17;;;14.40;76.80;;;;;;5051922;28;20044;-36
2021/05/17 10:16:20;;;;;;;4.38;1.75;;;15.70;74.20;;;;;;5053413;28;20056;-36
2021/05/17 10:18:47;;;;;;;5.60;1.52;;;16.30;70.10;;;;;;5051088;28;20083;-35
2021/05/17 10:21:18;;;;;;;3.92;1.60;;;17.50;66.60;;;;;;5051930;28;20025;-35
2021/05/17 10:23:46;;;;;;;4.10;1.58;;;16.80;64.90;;;;;;5052633;28;20034;-35
2021/05/17 10:26:17;;;;;;;6.18;1.67;;;17.20;65.10;;;;;;5051407;28;20026;-35
2021/05/17 10:28:46;;;;;;;;;;;17.10;63.40;;;;;;5053684;28;20369;-35
2021/05/17 10:31:18;;;;;;;5.05;1.55;;;15.40;68.50;;;;;;5052642;28;19905;-35
2021/05/17 10:33:55;;;;;;;3.90;1.55;;;16.50;66.90;;;;;;5052519;28;20024;-36
2021/05/17 10:36:50;;;;;;;4.47;1.48;;;17.50;63.70;;;;;;5052086;28;20028;-35
2021/05/17 10:39:18;;;;;;;3.03;1.52;;;17.20;62.10;;;;;;5052461;28;20028;-35
2021/05/17 10:42:08;;;;;;;2.35;1.42;;;16.10;65.00;;;;;;5054541;28;20041;-35
2021/05/17 10:48:33;;;;;;;2.97;1.13;;;16.50;62.30;;;;;;5056750;28;20032;-36
2021/05/17 10:51:34;;;;;;;2.72;0.95;;;15.90;63.40;;;;;;5056257;28;20083;-36
2021/05/17 10:54:00;;;;;;;2.08;1.17;;;16.50;61.50;;;;;;5054196;28;20386;-36
2021/05/17 10:56:43;;;;;;;3.45;1.10;;;16.00;62.90;;;;;;5055403;28;20063;-36
2021/05/17 11:01:59;;;;;;;2.97;1.13;;;15.50;63.40;;;;;;5056793;28;20495;-35
2021/05/17 11:04:25;;;;;;;5.45;1.63;;;15.80;62.80;;;;;;5056425;28;20021;-37
2021/05/17 11:07:09;;;;;;;2.60;1.17;;;16.90;60.10;;;;;;5056452;28;20384;-36
2021/05/17 11:10:06;;;;;;;1.45;0.95;;;16.70;61.20;;;;;;5055959;28;20376;-37
2021/05/17 11:12:37;;;;;;;5.30;1.10;;;15.90;61.50;;;;;;5056135;28;20029;-36
2021/05/17 11:15:16;;;;;;;1.15;0.63;;;15.40;64.30;;;;;;5055677;28;20025;-36
2021/05/17 11:18:07;;;;;;;8.18;1.25;;;13.30;74.40;;;;;;5055701;28;20028;-36
2021/05/17 11:20:43;;;;;;;2.50;1.23;;;12.40;81.90;;;;;;5055946;28;20017;-37
2021/05/17 11:23:39;;;;;;;3.42;1.85;;;12.00;84.40;;;;;;5055692;28;20021;-35
2021/05/17 11:26:08;;;;;;;3.78;1.45;;;11.80;87.00;;;;;;5055866;28;20385;-36
2021/05/17 11:28:37;;;;;;;4.25;1.48;;;11.60;87.00;;;;;;5055732;28;20031;-37
2021/05/17 11:31:15;;;;;;;4.32;1.75;;;11.50;88.10;;;;;;5055322;28;20033;-36
2021/05/17 11:33:53;;;;;;;9.05;3.53;;;11.50;86.70;;;;;;5055500;28;20029;-37
2021/05/17 11:36:20;;;;;;;2.47;1.60;;;11.70;87.20;;;;;;5056344;28;20079;-36
2021/05/17 11:39:19;;;;;;;3.47;1.45;;;11.70;86.10;;;;;;5053746;28;20033;-36
2021/05/17 11:41:54;;;;;;;4.63;1.35;;;11.90;85.30;;;;;;5055533;28;20028;-36
2021/05/17 11:44:30;;;;;;;2.03;1.02;;;12.20;84.40;;;;;;5055167;28;20330;-36
2021/05/17 11:46:59;;;;;;;4.40;1.60;;;12.80;82.90;;;;;;5054923;28;20115;-37
2021/05/17 11:49:28;;;;;;;5.03;1.80;;;13.70;80.00;;;;;;5055476;28;20062;-37
2021/05/17 11:51:59;;;;;;;4.47;2.50;;;13.20;82.80;;;;;;5054525;28;20052;-36
2021/05/17 11:54:28;;;;;;;10.35;2.40;;;13.60;81.30;;;;;;5055202;28;20028;-37
2021/05/17 11:56:58;;;;;;;5.07;1.70;;;14.30;78.20;;;;;;5054897;28;20031;-37
2021/05/17 11:59:25;;;;;;;2.63;1.88;;;14.70;79.70;;;;;;5054659;28;20259;-37
2021/05/17 12:01:56;;;;;;;6.68;3.70;;;15.10;75.70;;;;;;5055613;28;20044;-37
2021/05/17 12:04:29;;;;;;;3.35;1.27;;;16.30;73.50;;;;;;5053780;28;20021;-37
2021/05/17 12:06:57;;;;;;;2.75;1.30;;;16.40;72.50;;;;;;5056510;28;20029;-37
2021/05/17 12:09:37;;;;;;;2.83;1.70;;;17.00;69.70;;;;;;5054735;28;20024;-37
2021/05/17 12:12:06;;;;;;;3.10;1.67;;;16.20;71.10;;;;;;5053661;28;20164;-37
2021/05/17 12:14:33;;;;;;;4.05;1.80;;;15.20;72.70;;;;;;5054857;28;20021;-37
2021/05/17 12:17:01;;;;;;;1.92;1.70;;;14.80;75.80;;;;;;5054764;28;20025;-38
2021/05/17 12:19:27;;;;;;;4.65;2.00;;;15.00;74.30;;;;;;5054459;28;20467;-37
2021/05/17 12:21:57;;;;;;;4.68;1.58;;;15.40;73.70;;;;;;5054150;28;20102;-38
2021/05/17 12:24:27;;;;;;;;;;;15.20;73.90;;;;;;5054864;28;20074;-37
2021/05/17 12:27:04;;;;;;;2.63;1.50;;;15.20;74.60;;;;;;5054058;28;20360;-36
2021/05/17 12:29:51;;;;;;;3.05;2.38;;;15.40;73.60;;;;;;5054584;28;20054;-37
2021/05/17 12:32:20;;;;;;;6.38;3.95;;;15.50;72.40;;;;;;5053546;28;20036;-37
2021/05/17 12:34:55;;;;;;;2.28;1.33;;;15.20;72.80;;;;;;5054219;28;20025;-38
2021/05/17 12:37:22;;;;;;;3.75;1.45;;;15.40;72.30;;;;;;5054016;28;20029;-38
2021/05/17 12:40:23;;;;;;;4.40;1.30;;;15.10;73.00;;;;;;5052723;28;20025;-38
2021/05/17 12:42:58;;;;;;;;;;;15.20;73.20;;;;;;5054854;28;20048;-38
2021/05/17 12:45:24;;;;;;;2.65;0.55;;;15.00;71.40;;;;;;5054034;28;20364;-36
2021/05/17 12:47:49;;;;;;;1.55;0.50;;;14.30;72.40;;;;;;5053842;28;20025;-37
2021/05/17 12:50:24;;;;;;;0.40;0.40;;;14.00;74.10;;;;;;5052549;28;20453;-37
2021/05/17 12:53:10;;;;;;;1.20;0.68;;;13.70;76.30;;;;;;5054610;28;20033;-37
2021/05/17 12:55:42;;;;;;;0.22;0.17;;;13.50;77.50;;;;;;5053925;28;20472;-37
2021/05/17 12:58:09;;;;;;;3.88;1.48;;;13.30;78.30;;;;;;5053415;28;20039;-37
2021/05/17 13:00:38;;;;;;;0.65;0.40;;;13.30;78.10;;;;;;5053627;28;20374;-37
2021/05/17 13:03:12;;;;;;;0.98;0.70;;;13.00;79.90;;;;;;5051190;28;20029;-37
2021/05/17 13:06:17;;;;;;;2.17;0.70;;;12.80;81.30;;;;;;5053440;28;20029;-38
2021/05/17 13:08:49;;;;;;;1.58;0.88;;;13.10;81.30;;;;;;5052760;28;20115;-36
2021/05/17 13:11:25;;;;;;;1.75;0.80;;;12.90;83.80;;;;;;5052095;28;20036;-36
2021/05/17 13:14:08;;;;;;;0.98;0.88;;;13.10;83.90;;;;;;5053401;28;20074;-37
2021/05/17 13:16:39;;;;;;;1.52;1.20;;;13.00;83.80;;;;;;5053530;28;20206;-36
2021/05/17 13:30:12;;;;;;;4.85;2.65;;;13.00;85.50;;;;;;5054035;28;20032;-37
2021/05/17 13:32:47;;;;;;;3.60;2.38;;;13.10;86.00;;;;;;5053394;28;20476;-37
2021/05/17 13:35:14;;;;;;;5.63;3.28;;;13.20;85.10;;;;;;5053340;28;20074;-37